sensor_id;sensor_type;location;lat;lon;timestamp;P1;durP1;ratioP1;P2;durP2;ratioP2
74612;SDS011;63119;51.788;8.824;2023-05-23T00:01:28;21.15;;;13.48;;
74612;SDS011;63119;51.788;8.824;2023-05-23T00:03:55;17.63;;;12.18;;
74612;SDS011;63119;51.788;8.824;2023-05-23T00:06:20;16.65;;;12.15;;
74612;SDS011;63119;51.788;8.824;2023-05-23T00:08:46;17.47;;;11.83;;
74612;SDS011;63119;51.788;8.824;2023-05-23T00:11:11;19.77;;;11.13;;
74612;SDS011;63119;51.788;8.824;2023-05-23T00:13:37;17.05;;;11.10;;
74612;SDS011;63119;51.788;8.824;2023-05-23T00:16:03;16.95;;;10.55;;
74612;SDS011;63119;51.788;8.824;2023-05-23T00:18:29;15.40;;;9.65;;
74612;SDS011;63119;51.788;8.824;2023-05-23T00:20:55;15.48;;;9.73;;
74612;SDS011;63119;51.788;8.824;2023-05-23T00:23:21;18.17;;;9.70;;
74612;SDS011;63119;51.788;8.824;2023-05-23T00:25:49;14.88;;;9.18;;
74612;SDS011;63119;51.788;8.824;2023-05-23T00:28:18;14.70;;;9.77;;
74612;SDS011;63119;51.788;8.824;2023-05-23T00:30:43;16.67;;;10.50;;
74612;SDS011;63119;51.788;8.824;2023-05-23T00:33:08;14.65;;;10.00;;
74612;SDS011;63119;51.788;8.824;2023-05-23T00:35:34;15.38;;;9.55;;
74612;SDS011;63119;51.788;8.824;2023-05-23T00:37:59;16.07;;;9.90;;
74612;SDS011;63119;51.788;8.824;2023-05-23T00:40:26;16.52;;;9.75;;
74612;SDS011;63119;51.788;8.824;2023-05-23T00:42:51;15.63;;;10.13;;
74612;SDS011;63119;51.788;8.824;2023-05-23T00:45:17;15.80;;;10.40;;
74612;SDS011;63119;51.788;8.824;2023-05-23T00:47:42;20.63;;;11.73;;
74612;SDS011;63119;51.788;8.824;2023-05-23T00:50:12;19.08;;;12.00;;
74612;SDS011;63119;51.788;8.824;2023-05-23T00:52:39;20.13;;;11.68;;
74612;SDS011;63119;51.788;8.824;2023-05-23T00:55:05;24.17;;;13.18;;
74612;SDS011;63119;51.788;8.824;2023-05-23T00:57:32;21.67;;;13.02;;
74612;SDS011;63119;51.788;8.824;2023-05-23T00:59:58;22.13;;;13.35;;
74612;SDS011;63119;51.788;8.824;2023-05-23T01:02:24;19.98;;;11.93;;
74612;SDS011;63119;51.788;8.824;2023-05-23T01:04:51;16.27;;;12.15;;
74612;SDS011;63119;51.788;8.824;2023-05-23T01:07:18;20.75;;;12.88;;
74612;SDS011;63119;51.788;8.824;2023-05-23T01:09:46;23.08;;;12.10;;
74612;SDS011;63119;51.788;8.824;2023-05-23T01:17:34;20.52;;;13.40;;
74612;SDS011;63119;51.788;8.824;2023-05-23T01:27:47;22.13;;;13.82;;
74612;SDS011;63119;51.788;8.824;2023-05-23T01:30:16;20.23;;;12.77;;
74612;SDS011;63119;51.788;8.824;2023-05-23T01:32:45;27.48;;;13.88;;
74612;SDS011;63119;51.788;8.824;2023-05-23T01:35:12;20.58;;;13.15;;
74612;SDS011;63119;51.788;8.824;2023-05-23T01:37:41;21.15;;;14.10;;
74612;SDS011;63119;51.788;8.824;2023-05-23T01:40:08;21.35;;;13.57;;
74612;SDS011;63119;51.788;8.824;2023-05-23T01:42:34;21.27;;;13.43;;
74612;SDS011;63119;51.788;8.824;2023-05-23T01:44:59;23.85;;;14.43;;
74612;SDS011;63119;51.788;8.824;2023-05-23T01:47:24;20.83;;;14.10;;
74612;SDS011;63119;51.788;8.824;2023-05-23T01:49:50;21.83;;;13.27;;
74612;SDS011;63119;51.788;8.824;2023-05-23T01:52:16;21.08;;;14.05;;
74612;SDS011;63119;51.788;8.824;2023-05-23T01:54:42;25.17;;;12.80;;
74612;SDS011;63119;51.788;8.824;2023-05-23T01:57:08;23.67;;;14.02;;
74612;SDS011;63119;51.788;8.824;2023-05-23T01:59:35;22.30;;;14.00;;
74612;SDS011;63119;51.788;8.824;2023-05-23T02:02:01;22.00;;;13.57;;
74612;SDS011;63119;51.788;8.824;2023-05-23T02:04:26;18.87;;;12.27;;
74612;SDS011;63119;51.788;8.824;2023-05-23T02:06:52;23.27;;;12.93;;
74612;SDS011;63119;51.788;8.824;2023-05-23T02:09:17;20.20;;;12.77;;
74612;SDS011;63119;51.788;8.824;2023-05-23T02:11:42;18.13;;;12.33;;
74612;SDS011;63119;51.788;8.824;2023-05-23T02:14:09;20.80;;;11.83;;
74612;SDS011;63119;51.788;8.824;2023-05-23T02:16:35;15.60;;;10.82;;
74612;SDS011;63119;51.788;8.824;2023-05-23T02:19:00;18.77;;;11.67;;
74612;SDS011;63119;51.788;8.824;2023-05-23T02:21:25;15.77;;;10.23;;
74612;SDS011;63119;51.788;8.824;2023-05-23T02:23:51;17.20;;;10.13;;
74612;SDS011;63119;51.788;8.824;2023-05-23T02:26:16;15.17;;;10.03;;
74612;SDS011;63119;51.788;8.824;2023-05-23T02:28:42;18.20;;;9.82;;
74612;SDS011;63119;51.788;8.824;2023-05-23T02:31:07;15.67;;;9.97;;
74612;SDS011;63119;51.788;8.824;2023-05-23T02:33:32;14.47;;;9.20;;
74612;SDS011;63119;51.788;8.824;2023-05-23T02:35:57;14.67;;;9.87;;
74612;SDS011;63119;51.788;8.824;2023-05-23T02:38:23;14.93;;;9.03;;
74612;SDS011;63119;51.788;8.824;2023-05-23T02:40:50;14.07;;;8.95;;
74612;SDS011;63119;51.788;8.824;2023-05-23T02:43:17;16.10;;;8.85;;
74612;SDS011;63119;51.788;8.824;2023-05-23T02:45:42;14.82;;;8.48;;
74612;SDS011;63119;51.788;8.824;2023-05-23T02:48:08;13.70;;;7.77;;
74612;SDS011;63119;51.788;8.824;2023-05-23T02:50:33;15.63;;;8.70;;
74612;SDS011;63119;51.788;8.824;2023-05-23T02:52:58;13.87;;;8.93;;
74612;SDS011;63119;51.788;8.824;2023-05-23T02:55:23;12.43;;;7.97;;
74612;SDS011;63119;51.788;8.824;2023-05-23T02:57:49;13.77;;;8.63;;
74612;SDS011;63119;51.788;8.824;2023-05-23T03:00:15;12.60;;;8.00;;
74612;SDS011;63119;51.788;8.824;2023-05-23T03:02:40;12.93;;;8.65;;
74612;SDS011;63119;51.788;8.824;2023-05-23T03:05:06;15.45;;;8.63;;
74612;SDS011;63119;51.788;8.824;2023-05-23T03:07:31;12.68;;;8.25;;
74612;SDS011;63119;51.788;8.824;2023-05-23T03:09:57;12.80;;;8.13;;
74612;SDS011;63119;51.788;8.824;2023-05-23T03:12:23;13.27;;;8.43;;
74612;SDS011;63119;51.788;8.824;2023-05-23T03:14:48;14.47;;;8.60;;
74612;SDS011;63119;51.788;8.824;2023-05-23T03:17:14;14.27;;;8.10;;
74612;SDS011;63119;51.788;8.824;2023-05-23T03:19:40;13.48;;;8.02;;
74612;SDS011;63119;51.788;8.824;2023-05-23T03:22:05;14.43;;;9.03;;
74612;SDS011;63119;51.788;8.824;2023-05-23T03:24:30;15.27;;;9.13;;
74612;SDS011;63119;51.788;8.824;2023-05-23T03:26:55;12.33;;;8.63;;
74612;SDS011;63119;51.788;8.824;2023-05-23T03:29:21;13.52;;;8.32;;
74612;SDS011;63119;51.788;8.824;2023-05-23T03:31:46;15.67;;;9.50;;
74612;SDS011;63119;51.788;8.824;2023-05-23T03:34:11;14.23;;;9.80;;
74612;SDS011;63119;51.788;8.824;2023-05-23T03:36:37;16.87;;;9.90;;
74612;SDS011;63119;51.788;8.824;2023-05-23T03:39:03;13.85;;;8.93;;
74612;SDS011;63119;51.788;8.824;2023-05-23T03:41:28;18.38;;;9.65;;
74612;SDS011;63119;51.788;8.824;2023-05-23T03:43:53;13.67;;;8.70;;
74612;SDS011;63119;51.788;8.824;2023-05-23T03:46:19;11.77;;;8.27;;
74612;SDS011;63119;51.788;8.824;2023-05-23T03:48:44;14.53;;;9.07;;
74612;SDS011;63119;51.788;8.824;2023-05-23T03:51:09;13.10;;;8.53;;
74612;SDS011;63119;51.788;8.824;2023-05-23T03:53:37;11.95;;;8.07;;
74612;SDS011;63119;51.788;8.824;2023-05-23T03:56:02;16.13;;;9.25;;
74612;SDS011;63119;51.788;8.824;2023-05-23T03:58:27;16.43;;;9.60;;
74612;SDS011;63119;51.788;8.824;2023-05-23T04:00:53;15.67;;;9.43;;
74612;SDS011;63119;51.788;8.824;2023-05-23T04:03:18;17.35;;;9.50;;
74612;SDS011;63119;51.788;8.824;2023-05-23T04:05:44;16.80;;;9.50;;
74612;SDS011;63119;51.788;8.824;2023-05-23T04:08:09;16.03;;;10.30;;
74612;SDS011;63119;51.788;8.824;2023-05-23T04:10:34;15.47;;;9.27;;
74612;SDS011;63119;51.788;8.824;2023-05-23T04:13:00;14.70;;;8.87;;
74612;SDS011;63119;51.788;8.824;2023-05-23T04:15:25;16.77;;;9.43;;
74612;SDS011;63119;51.788;8.824;2023-05-23T04:17:51;15.18;;;9.30;;
74612;SDS011;63119;51.788;8.824;2023-05-23T04:20:17;14.25;;;9.57;;
74612;SDS011;63119;51.788;8.824;2023-05-23T04:22:42;14.37;;;9.40;;
74612;SDS011;63119;51.788;8.824;2023-05-23T04:25:08;14.67;;;9.30;;
74612;SDS011;63119;51.788;8.824;2023-05-23T04:27:33;15.90;;;9.65;;
74612;SDS011;63119;51.788;8.824;2023-05-23T04:29:59;13.00;;;9.38;;
74612;SDS011;63119;51.788;8.824;2023-05-23T04:32:24;14.65;;;9.18;;
74612;SDS011;63119;51.788;8.824;2023-05-23T04:34:50;16.02;;;9.35;;
74612;SDS011;63119;51.788;8.824;2023-05-23T04:37:16;14.13;;;9.10;;
74612;SDS011;63119;51.788;8.824;2023-05-23T04:39:45;14.80;;;9.63;;
74612;SDS011;63119;51.788;8.824;2023-05-23T04:42:11;15.43;;;9.60;;
74612;SDS011;63119;51.788;8.824;2023-05-23T04:44:36;15.40;;;9.80;;
74612;SDS011;63119;51.788;8.824;2023-05-23T04:47:01;15.07;;;10.57;;
74612;SDS011;63119;51.788;8.824;2023-05-23T04:49:27;17.77;;;10.67;;
74612;SDS011;63119;51.788;8.824;2023-05-23T04:51:53;16.92;;;10.32;;
74612;SDS011;63119;51.788;8.824;2023-05-23T04:54:18;16.17;;;9.83;;
74612;SDS011;63119;51.788;8.824;2023-05-23T04:56:43;17.33;;;10.23;;
74612;SDS011;63119;51.788;8.824;2023-05-23T04:59:09;15.43;;;10.50;;
74612;SDS011;63119;51.788;8.824;2023-05-23T05:01:35;15.65;;;10.63;;
74612;SDS011;63119;51.788;8.824;2023-05-23T05:04:04;16.83;;;11.13;;
74612;SDS011;63119;51.788;8.824;2023-05-23T05:06:29;17.40;;;11.33;;
74612;SDS011;63119;51.788;8.824;2023-05-23T05:08:54;18.85;;;11.65;;
74612;SDS011;63119;51.788;8.824;2023-05-23T05:11:20;18.40;;;11.40;;
74612;SDS011;63119;51.788;8.824;2023-05-23T05:13:45;17.70;;;11.25;;
74612;SDS011;63119;51.788;8.824;2023-05-23T05:16:11;18.80;;;11.40;;
74612;SDS011;63119;51.788;8.824;2023-05-23T05:18:37;21.27;;;12.20;;
74612;SDS011;63119;51.788;8.824;2023-05-23T05:21:02;22.38;;;11.88;;
74612;SDS011;63119;51.788;8.824;2023-05-23T05:23:29;17.58;;;11.02;;
74612;SDS011;63119;51.788;8.824;2023-05-23T05:25:55;19.42;;;11.48;;
74612;SDS011;63119;51.788;8.824;2023-05-23T05:28:21;19.90;;;12.38;;
74612;SDS011;63119;51.788;8.824;2023-05-23T05:30:46;22.02;;;12.48;;
74612;SDS011;63119;51.788;8.824;2023-05-23T05:33:12;22.48;;;12.23;;
74612;SDS011;63119;51.788;8.824;2023-05-23T05:35:38;21.20;;;11.68;;
74612;SDS011;63119;51.788;8.824;2023-05-23T05:38:03;21.70;;;12.10;;
74612;SDS011;63119;51.788;8.824;2023-05-23T05:40:32;21.73;;;12.98;;
74612;SDS011;63119;51.788;8.824;2023-05-23T05:42:57;22.58;;;13.23;;
74612;SDS011;63119;51.788;8.824;2023-05-23T05:45:22;24.90;;;12.80;;
74612;SDS011;63119;51.788;8.824;2023-05-23T05:47:47;22.50;;;13.67;;
74612;SDS011;63119;51.788;8.824;2023-05-23T05:50:13;23.47;;;12.90;;
74612;SDS011;63119;51.788;8.824;2023-05-23T05:52:38;20.03;;;12.93;;
74612;SDS011;63119;51.788;8.824;2023-05-23T05:55:05;22.27;;;13.55;;
74612;SDS011;63119;51.788;8.824;2023-05-23T05:57:32;24.73;;;13.20;;
74612;SDS011;63119;51.788;8.824;2023-05-23T05:59:57;24.13;;;12.45;;
74612;SDS011;63119;51.788;8.824;2023-05-23T06:02:23;26.83;;;12.68;;
74612;SDS011;63119;51.788;8.824;2023-05-23T06:04:48;20.53;;;12.47;;
74612;SDS011;63119;51.788;8.824;2023-05-23T06:07:13;21.03;;;12.53;;
74612;SDS011;63119;51.788;8.824;2023-05-23T06:09:38;25.50;;;13.53;;
74612;SDS011;63119;51.788;8.824;2023-05-23T06:12:04;21.03;;;12.57;;
74612;SDS011;63119;51.788;8.824;2023-05-23T06:14:29;23.00;;;13.90;;
74612;SDS011;63119;51.788;8.824;2023-05-23T06:16:54;22.37;;;13.80;;
74612;SDS011;63119;51.788;8.824;2023-05-23T06:19:20;24.90;;;14.03;;
74612;SDS011;63119;51.788;8.824;2023-05-23T06:21:45;24.43;;;13.30;;
74612;SDS011;63119;51.788;8.824;2023-05-23T06:24:10;22.43;;;13.57;;
74612;SDS011;63119;51.788;8.824;2023-05-23T06:26:35;22.60;;;12.90;;
74612;SDS011;63119;51.788;8.824;2023-05-23T06:29:01;22.75;;;13.35;;
74612;SDS011;63119;51.788;8.824;2023-05-23T06:31:27;23.15;;;13.20;;
74612;SDS011;63119;51.788;8.824;2023-05-23T06:33:52;25.43;;;13.10;;
74612;SDS011;63119;51.788;8.824;2023-05-23T06:36:18;22.55;;;13.45;;
74612;SDS011;63119;51.788;8.824;2023-05-23T06:38:43;27.23;;;13.73;;
74612;SDS011;63119;51.788;8.824;2023-05-23T06:41:08;21.30;;;12.73;;
74612;SDS011;63119;51.788;8.824;2023-05-23T06:43:34;22.00;;;13.13;;
74612;SDS011;63119;51.788;8.824;2023-05-23T06:45:59;23.95;;;12.55;;
74612;SDS011;63119;51.788;8.824;2023-05-23T06:48:24;23.75;;;13.90;;
74612;SDS011;63119;51.788;8.824;2023-05-23T06:50:51;24.85;;;13.45;;
74612;SDS011;63119;51.788;8.824;2023-05-23T06:53:16;23.47;;;13.53;;
74612;SDS011;63119;51.788;8.824;2023-05-23T06:55:42;22.23;;;13.05;;
74612;SDS011;63119;51.788;8.824;2023-05-23T06:58:07;22.07;;;12.97;;
74612;SDS011;63119;51.788;8.824;2023-05-23T07:00:33;24.85;;;13.57;;
74612;SDS011;63119;51.788;8.824;2023-05-23T07:02:58;24.52;;;13.57;;
74612;SDS011;63119;51.788;8.824;2023-05-23T07:05:27;23.77;;;13.68;;
74612;SDS011;63119;51.788;8.824;2023-05-23T07:07:52;22.97;;;13.20;;
74612;SDS011;63119;51.788;8.824;2023-05-23T07:10:18;24.63;;;13.65;;
74612;SDS011;63119;51.788;8.824;2023-05-23T07:12:44;23.50;;;12.98;;
74612;SDS011;63119;51.788;8.824;2023-05-23T07:15:10;21.65;;;12.20;;
74612;SDS011;63119;51.788;8.824;2023-05-23T07:17:35;19.45;;;11.43;;
74612;SDS011;63119;51.788;8.824;2023-05-23T07:20:01;19.60;;;11.70;;
74612;SDS011;63119;51.788;8.824;2023-05-23T07:22:26;20.52;;;11.23;;
74612;SDS011;63119;51.788;8.824;2023-05-23T07:24:51;18.87;;;10.50;;
74612;SDS011;63119;51.788;8.824;2023-05-23T07:27:17;20.70;;;11.07;;
74612;SDS011;63119;51.788;8.824;2023-05-23T07:29:42;18.80;;;10.20;;
74612;SDS011;63119;51.788;8.824;2023-05-23T07:32:07;19.92;;;11.35;;
74612;SDS011;63119;51.788;8.824;2023-05-23T07:34:33;21.03;;;11.10;;
74612;SDS011;63119;51.788;8.824;2023-05-23T07:36:58;16.47;;;9.70;;
74612;SDS011;63119;51.788;8.824;2023-05-23T07:39:23;18.73;;;9.20;;
74612;SDS011;63119;51.788;8.824;2023-05-23T07:41:49;19.42;;;10.48;;
74612;SDS011;63119;51.788;8.824;2023-05-23T07:44:15;18.17;;;10.07;;
74612;SDS011;63119;51.788;8.824;2023-05-23T07:46:41;20.73;;;10.45;;
74612;SDS011;63119;51.788;8.824;2023-05-23T07:49:07;15.10;;;9.27;;
74612;SDS011;63119;51.788;8.824;2023-05-23T07:51:32;17.03;;;9.90;;
74612;SDS011;63119;51.788;8.824;2023-05-23T07:53:57;19.00;;;8.90;;
74612;SDS011;63119;51.788;8.824;2023-05-23T07:56:22;15.87;;;8.30;;
74612;SDS011;63119;51.788;8.824;2023-05-23T07:58:48;14.80;;;8.60;;
74612;SDS011;63119;51.788;8.824;2023-05-23T08:01:13;16.13;;;8.87;;
74612;SDS011;63119;51.788;8.824;2023-05-23T08:03:38;16.13;;;8.70;;
74612;SDS011;63119;51.788;8.824;2023-05-23T08:06:03;13.33;;;7.97;;
74612;SDS011;63119;51.788;8.824;2023-05-23T08:08:30;14.45;;;8.02;;
74612;SDS011;63119;51.788;8.824;2023-05-23T08:10:56;14.77;;;7.60;;
74612;SDS011;63119;51.788;8.824;2023-05-23T08:13:21;14.37;;;7.90;;
74612;SDS011;63119;51.788;8.824;2023-05-23T08:15:46;13.33;;;7.43;;
74612;SDS011;63119;51.788;8.824;2023-05-23T08:18:11;10.80;;;6.67;;
74612;SDS011;63119;51.788;8.824;2023-05-23T08:20:37;13.30;;;6.43;;
74612;SDS011;63119;51.788;8.824;2023-05-23T08:23:03;13.33;;;6.67;;
74612;SDS011;63119;51.788;8.824;2023-05-23T08:25:28;8.00;;;4.83;;
74612;SDS011;63119;51.788;8.824;2023-05-23T08:27:55;8.35;;;4.20;;
74612;SDS011;63119;51.788;8.824;2023-05-23T08:30:22;7.03;;;3.60;;
74612;SDS011;63119;51.788;8.824;2023-05-23T08:32:49;6.22;;;3.97;;
74612;SDS011;63119;51.788;8.824;2023-05-23T08:35:14;7.03;;;3.50;;
74612;SDS011;63119;51.788;8.824;2023-05-23T08:37:39;6.90;;;3.03;;
74612;SDS011;63119;51.788;8.824;2023-05-23T08:40:06;6.43;;;2.80;;
74612;SDS011;63119;51.788;8.824;2023-05-23T08:42:37;4.35;;;2.30;;
74612;SDS011;63119;51.788;8.824;2023-05-23T08:45:03;5.50;;;2.53;;
74612;SDS011;63119;51.788;8.824;2023-05-23T08:47:28;4.85;;;2.25;;
74612;SDS011;63119;51.788;8.824;2023-05-23T08:49:57;4.28;;;2.13;;
74612;SDS011;63119;51.788;8.824;2023-05-23T08:52:25;3.13;;;1.50;;
74612;SDS011;63119;51.788;8.824;2023-05-23T08:54:54;4.22;;;1.75;;
74612;SDS011;63119;51.788;8.824;2023-05-23T08:57:20;2.25;;;1.40;;
74612;SDS011;63119;51.788;8.824;2023-05-23T08:59:46;3.70;;;1.55;;
74612;SDS011;63119;51.788;8.824;2023-05-23T09:02:12;3.58;;;1.40;;
74612;SDS011;63119;51.788;8.824;2023-05-23T09:04:38;3.03;;;1.30;;
74612;SDS011;63119;51.788;8.824;2023-05-23T09:07:03;1.97;;;1.20;;
74612;SDS011;63119;51.788;8.824;2023-05-23T09:09:29;2.28;;;1.40;;
74612;SDS011;63119;51.788;8.824;2023-05-23T09:11:54;3.38;;;1.48;;
74612;SDS011;63119;51.788;8.824;2023-05-23T09:14:23;2.05;;;1.20;;
74612;SDS011;63119;51.788;8.824;2023-05-23T09:16:48;2.90;;;1.47;;
74612;SDS011;63119;51.788;8.824;2023-05-23T09:19:14;2.20;;;1.23;;
74612;SDS011;63119;51.788;8.824;2023-05-23T09:21:43;4.35;;;1.30;;
74612;SDS011;63119;51.788;8.824;2023-05-23T09:24:09;4.40;;;1.67;;
74612;SDS011;63119;51.788;8.824;2023-05-23T09:26:35;2.10;;;1.27;;
74612;SDS011;63119;51.788;8.824;2023-05-23T09:29:00;2.77;;;1.17;;
74612;SDS011;63119;51.788;8.824;2023-05-23T09:31:28;2.42;;;1.50;;
74612;SDS011;63119;51.788;8.824;2023-05-23T09:33:56;3.05;;;1.48;;
74612;SDS011;63119;51.788;8.824;2023-05-23T09:36:22;4.72;;;2.70;;
74612;SDS011;63119;51.788;8.824;2023-05-23T09:38:47;2.73;;;1.50;;
74612;SDS011;63119;51.788;8.824;2023-05-23T09:41:12;5.13;;;1.73;;
74612;SDS011;63119;51.788;8.824;2023-05-23T09:43:39;3.10;;;1.73;;
74612;SDS011;63119;51.788;8.824;2023-05-23T09:46:13;2.92;;;1.65;;
74612;SDS011;63119;51.788;8.824;2023-05-23T09:48:38;2.30;;;1.57;;
74612;SDS011;63119;51.788;8.824;2023-05-23T09:51:04;5.40;;;2.10;;
74612;SDS011;63119;51.788;8.824;2023-05-23T09:53:30;4.97;;;1.67;;
74612;SDS011;63119;51.788;8.824;2023-05-23T09:55:55;6.57;;;2.92;;
74612;SDS011;63119;51.788;8.824;2023-05-23T09:58:23;4.25;;;2.33;;
74612;SDS011;63119;51.788;8.824;2023-05-23T10:00:51;4.15;;;2.38;;
74612;SDS011;63119;51.788;8.824;2023-05-23T10:03:21;4.45;;;2.20;;
74612;SDS011;63119;51.788;8.824;2023-05-23T10:05:52;4.18;;;2.35;;
74612;SDS011;63119;51.788;8.824;2023-05-23T10:08:33;5.53;;;2.47;;
74612;SDS011;63119;51.788;8.824;2023-05-23T10:13:48;4.95;;;2.75;;
74612;SDS011;63119;51.788;8.824;2023-05-23T10:16:17;5.50;;;3.03;;
74612;SDS011;63119;51.788;8.824;2023-05-23T10:18:56;7.95;;;3.55;;
74612;SDS011;63119;51.788;8.824;2023-05-23T10:21:28;7.57;;;3.50;;
74612;SDS011;63119;51.788;8.824;2023-05-23T10:23:57;6.35;;;3.60;;
74612;SDS011;63119;51.788;8.824;2023-05-23T10:26:23;6.18;;;3.92;;
74612;SDS011;63119;51.788;8.824;2023-05-23T10:28:51;10.63;;;4.20;;
74612;SDS011;63119;51.788;8.824;2023-05-23T10:31:17;8.02;;;3.63;;
74612;SDS011;63119;51.788;8.824;2023-05-23T10:33:47;6.47;;;3.55;;
74612;SDS011;63119;51.788;8.824;2023-05-23T10:36:29;11.45;;;4.40;;
74612;SDS011;63119;51.788;8.824;2023-05-23T10:42:10;9.75;;;4.55;;
74612;SDS011;63119;51.788;8.824;2023-05-23T10:44:41;8.27;;;4.30;;
74612;SDS011;63119;51.788;8.824;2023-05-23T10:47:06;9.37;;;4.40;;
74612;SDS011;63119;51.788;8.824;2023-05-23T10:52:10;9.40;;;4.57;;
74612;SDS011;63119;51.788;8.824;2023-05-23T10:54:43;12.60;;;5.43;;
74612;SDS011;63119;51.788;8.824;2023-05-23T10:57:11;9.55;;;5.05;;
74612;SDS011;63119;51.788;8.824;2023-05-23T10:59:40;13.50;;;5.95;;
74612;SDS011;63119;51.788;8.824;2023-05-23T11:02:11;10.93;;;4.60;;
74612;SDS011;63119;51.788;8.824;2023-05-23T11:04:40;10.55;;;5.10;;
74612;SDS011;63119;51.788;8.824;2023-05-23T11:07:27;10.55;;;4.53;;
74612;SDS011;63119;51.788;8.824;2023-05-23T11:10:13;11.60;;;6.00;;
74612;SDS011;63119;51.788;8.824;2023-05-23T11:12:41;14.88;;;5.18;;
74612;SDS011;63119;51.788;8.824;2023-05-23T11:17:55;12.52;;;5.28;;
74612;SDS011;63119;51.788;8.824;2023-05-23T11:20:23;8.95;;;5.00;;
74612;SDS011;63119;51.788;8.824;2023-05-23T11:25:40;14.23;;;5.68;;
74612;SDS011;63119;51.788;8.824;2023-05-23T11:28:06;12.13;;;5.80;;
74612;SDS011;63119;51.788;8.824;2023-05-23T11:30:32;10.15;;;5.15;;
74612;SDS011;63119;51.788;8.824;2023-05-23T11:33:04;14.93;;;6.53;;
74612;SDS011;63119;51.788;8.824;2023-05-23T11:35:32;12.63;;;5.40;;
74612;SDS011;63119;51.788;8.824;2023-05-23T11:37:57;14.65;;;5.57;;
74612;SDS011;63119;51.788;8.824;2023-05-23T11:40:24;12.18;;;5.72;;
74612;SDS011;63119;51.788;8.824;2023-05-23T11:42:51;14.00;;;5.70;;
74612;SDS011;63119;51.788;8.824;2023-05-23T11:45:19;14.82;;;5.55;;
74612;SDS011;63119;51.788;8.824;2023-05-23T11:47:46;12.65;;;5.15;;
74612;SDS011;63119;51.788;8.824;2023-05-23T11:50:11;13.50;;;4.63;;
74612;SDS011;63119;51.788;8.824;2023-05-23T11:52:36;11.00;;;4.40;;
74612;SDS011;63119;51.788;8.824;2023-05-23T11:55:01;10.73;;;4.33;;
74612;SDS011;63119;51.788;8.824;2023-05-23T11:57:27;11.20;;;4.70;;
74612;SDS011;63119;51.788;8.824;2023-05-23T11:59:52;14.87;;;4.20;;
74612;SDS011;63119;51.788;8.824;2023-05-23T12:02:19;11.63;;;3.88;;
74612;SDS011;63119;51.788;8.824;2023-05-23T12:04:45;10.77;;;4.88;;
74612;SDS011;63119;51.788;8.824;2023-05-23T12:07:10;10.10;;;3.83;;
74612;SDS011;63119;51.788;8.824;2023-05-23T12:09:45;15.97;;;4.00;;
74612;SDS011;63119;51.788;8.824;2023-05-23T12:12:11;13.45;;;4.78;;
74612;SDS011;63119;51.788;8.824;2023-05-23T12:14:37;13.70;;;4.90;;
74612;SDS011;63119;51.788;8.824;2023-05-23T12:17:08;11.15;;;4.22;;
74612;SDS011;63119;51.788;8.824;2023-05-23T12:19:35;10.80;;;3.92;;
74612;SDS011;63119;51.788;8.824;2023-05-23T12:22:04;7.47;;;4.03;;
74612;SDS011;63119;51.788;8.824;2023-05-23T12:24:33;7.13;;;3.55;;
74612;SDS011;63119;51.788;8.824;2023-05-23T12:26:59;10.50;;;3.60;;
74612;SDS011;63119;51.788;8.824;2023-05-23T12:29:33;6.85;;;3.50;;
74612;SDS011;63119;51.788;8.824;2023-05-23T12:31:59;9.52;;;3.28;;
74612;SDS011;63119;51.788;8.824;2023-05-23T12:34:26;6.75;;;3.78;;
74612;SDS011;63119;51.788;8.824;2023-05-23T12:36:55;6.75;;;3.47;;
74612;SDS011;63119;51.788;8.824;2023-05-23T12:39:24;9.45;;;3.30;;
74612;SDS011;63119;51.788;8.824;2023-05-23T12:41:52;9.30;;;3.40;;
74612;SDS011;63119;51.788;8.824;2023-05-23T12:46:45;11.98;;;3.47;;
74612;SDS011;63119;51.788;8.824;2023-05-23T12:49:12;15.57;;;4.10;;
74612;SDS011;63119;51.788;8.824;2023-05-23T12:51:37;7.88;;;3.50;;
74612;SDS011;63119;51.788;8.824;2023-05-23T12:54:02;8.57;;;3.00;;
74612;SDS011;63119;51.788;8.824;2023-05-23T12:56:28;14.20;;;3.10;;
74612;SDS011;63119;51.788;8.824;2023-05-23T12:58:53;8.87;;;3.70;;
74612;SDS011;63119;51.788;8.824;2023-05-23T13:01:19;10.10;;;2.87;;
74612;SDS011;63119;51.788;8.824;2023-05-23T13:03:45;7.50;;;2.78;;
74612;SDS011;63119;51.788;8.824;2023-05-23T13:06:10;10.20;;;4.35;;
74612;SDS011;63119;51.788;8.824;2023-05-23T13:08:36;11.80;;;3.80;;
74612;SDS011;63119;51.788;8.824;2023-05-23T13:11:01;10.23;;;2.95;;
74612;SDS011;63119;51.788;8.824;2023-05-23T13:13:27;9.05;;;2.90;;
74612;SDS011;63119;51.788;8.824;2023-05-23T13:15:52;9.00;;;2.78;;
74612;SDS011;63119;51.788;8.824;2023-05-23T13:18:17;9.73;;;2.40;;
74612;SDS011;63119;51.788;8.824;2023-05-23T13:20:42;9.13;;;2.63;;
74612;SDS011;63119;51.788;8.824;2023-05-23T13:23:08;7.93;;;2.60;;
74612;SDS011;63119;51.788;8.824;2023-05-23T13:25:34;4.88;;;2.88;;
74612;SDS011;63119;51.788;8.824;2023-05-23T13:27:59;11.25;;;2.53;;
74612;SDS011;63119;51.788;8.824;2023-05-23T13:30:26;8.68;;;2.72;;
74612;SDS011;63119;51.788;8.824;2023-05-23T13:32:52;9.80;;;2.97;;
74612;SDS011;63119;51.788;8.824;2023-05-23T13:35:17;8.52;;;2.63;;
74612;SDS011;63119;51.788;8.824;2023-05-23T13:37:42;11.70;;;3.13;;
74612;SDS011;63119;51.788;8.824;2023-05-23T13:40:10;10.30;;;2.77;;
74612;SDS011;63119;51.788;8.824;2023-05-23T13:42:36;7.85;;;3.08;;
74612;SDS011;63119;51.788;8.824;2023-05-23T13:45:02;11.27;;;3.20;;
74612;SDS011;63119;51.788;8.824;2023-05-23T13:47:28;17.05;;;3.40;;
74612;SDS011;63119;51.788;8.824;2023-05-23T13:49:54;10.80;;;3.03;;
74612;SDS011;63119;51.788;8.824;2023-05-23T13:52:19;11.38;;;2.60;;
74612;SDS011;63119;51.788;8.824;2023-05-23T13:54:45;8.70;;;2.63;;
74612;SDS011;63119;51.788;8.824;2023-05-23T13:57:10;9.48;;;2.97;;
74612;SDS011;63119;51.788;8.824;2023-05-23T13:59:36;8.48;;;2.80;;
74612;SDS011;63119;51.788;8.824;2023-05-23T14:02:01;12.67;;;2.93;;
74612;SDS011;63119;51.788;8.824;2023-05-23T14:04:26;5.23;;;2.40;;
74612;SDS011;63119;51.788;8.824;2023-05-23T14:06:52;11.27;;;3.00;;
74612;SDS011;63119;51.788;8.824;2023-05-23T14:09:17;7.68;;;3.00;;
74612;SDS011;63119;51.788;8.824;2023-05-23T14:11:42;8.83;;;2.73;;
74612;SDS011;63119;51.788;8.824;2023-05-23T14:14:08;11.77;;;3.05;;
74612;SDS011;63119;51.788;8.824;2023-05-23T14:16:33;7.47;;;2.53;;
74612;SDS011;63119;51.788;8.824;2023-05-23T14:18:58;14.33;;;3.70;;
74612;SDS011;63119;51.788;8.824;2023-05-23T14:21:24;6.77;;;2.60;;
74612;SDS011;63119;51.788;8.824;2023-05-23T14:23:49;12.10;;;3.38;;
74612;SDS011;63119;51.788;8.824;2023-05-23T14:26:15;10.77;;;2.65;;
74612;SDS011;63119;51.788;8.824;2023-05-23T14:28:40;9.50;;;2.90;;
74612;SDS011;63119;51.788;8.824;2023-05-23T14:31:05;8.53;;;2.80;;
74612;SDS011;63119;51.788;8.824;2023-05-23T14:33:31;6.20;;;2.53;;
74612;SDS011;63119;51.788;8.824;2023-05-23T14:35:56;10.85;;;2.50;;
74612;SDS011;63119;51.788;8.824;2023-05-23T14:38:21;7.87;;;2.77;;
74612;SDS011;63119;51.788;8.824;2023-05-23T14:40:47;12.90;;;3.42;;
74612;SDS011;63119;51.788;8.824;2023-05-23T14:43:12;9.65;;;2.83;;
74612;SDS011;63119;51.788;8.824;2023-05-23T14:45:38;9.70;;;2.53;;
74612;SDS011;63119;51.788;8.824;2023-05-23T14:48:04;9.70;;;2.47;;
74612;SDS011;63119;51.788;8.824;2023-05-23T14:50:30;8.82;;;3.03;;
74612;SDS011;63119;51.788;8.824;2023-05-23T14:52:55;11.50;;;2.90;;
74612;SDS011;63119;51.788;8.824;2023-05-23T14:55:20;11.97;;;2.70;;
74612;SDS011;63119;51.788;8.824;2023-05-23T14:57:45;10.55;;;2.70;;